createdAt,value
2022-10-16T00:00:59.521Z,0.8
2022-10-16T00:02:07.200Z,0.7
2022-10-16T00:03:16.850Z,0.6
2022-10-16T00:04:25.534Z,0.6
2022-10-16T00:05:33.174Z,0.6
2022-10-16T00:06:42.942Z,0.8
2022-10-16T00:07:51.579Z,0.9
2022-10-16T00:09:00.240Z,1.2
2022-10-16T00:10:09.889Z,1
2022-10-16T00:11:18.548Z,1.1
2022-10-16T00:12:28.667Z,0.9
2022-10-16T00:13:36.998Z,0.9
2022-10-16T00:14:44.700Z,0.9
2022-10-16T00:15:54.413Z,0.9
2022-10-16T00:17:03.090Z,0.9
2022-10-16T00:18:12.803Z,1.1
2022-10-16T00:19:22.476Z,1
2022-10-16T00:20:30.193Z,0.9
2022-10-16T00:21:39.871Z,1.1
2022-10-16T00:22:49.569Z,1.1
2022-10-16T00:23:58.246Z,0.9
2022-10-16T00:25:06.891Z,0.7
2022-10-16T00:26:16.603Z,0.8
2022-10-16T00:27:24.279Z,0.8
2022-10-16T00:28:33.993Z,0.6
2022-10-16T00:29:42.584Z,0.9
2022-10-16T00:30:51.277Z,0.7
2022-10-16T00:32:00.949Z,0.7
2022-10-16T00:33:10.611Z,0.8
2022-10-16T00:34:20.269Z,0.7
2022-10-16T00:35:29.967Z,0.7
2022-10-16T00:36:37.613Z,0.5
2022-10-16T00:37:47.271Z,0.5
2022-10-16T00:38:56.029Z,0.4
2022-10-16T00:40:04.575Z,0.6
2022-10-16T00:41:14.257Z,0.3
2022-10-16T00:42:21.903Z,0.4
2022-10-16T00:43:31.570Z,0.5
2022-10-16T00:44:41.217Z,0.5
2022-10-16T00:45:48.885Z,0.5
2022-10-16T00:46:58.580Z,0.5
2022-10-16T00:48:08.239Z,0.3
2022-10-16T00:49:17.917Z,0.4
2022-10-16T00:50:27.579Z,0.3
2022-10-16T00:51:37.231Z,0.5
2022-10-16T00:52:46.028Z,0.5
2022-10-16T00:53:55.671Z,0.5
2022-10-16T00:55:05.354Z,0.4
2022-10-16T00:56:14.993Z,0.3
2022-10-16T00:57:24.657Z,0.5
2022-10-16T00:58:33.374Z,0.5
2022-10-16T00:59:43.023Z,0.4
2022-10-16T01:00:52.772Z,0.6
2022-10-16T01:02:02.350Z,0.6
2022-10-16T01:03:12.019Z,0.6
2022-10-16T01:04:20.719Z,0.6
2022-10-16T01:05:30.367Z,0.7
2022-10-16T01:06:40.028Z,0.6
2022-10-16T01:07:47.682Z,0.6
2022-10-16T01:08:57.327Z,0.7
2022-10-16T01:10:06.030Z,0.5
2022-10-16T01:11:15.716Z,0.6
2022-10-16T01:12:25.348Z,0.8
2022-10-16T01:13:34.002Z,0.6
2022-10-16T01:14:42.663Z,0.7
2022-10-16T01:15:51.364Z,0.5
2022-10-16T01:16:59.015Z,0.6
2022-10-16T01:18:08.703Z,0.5
2022-10-16T01:19:16.347Z,0.6
2022-10-16T01:20:25.018Z,0.5
2022-10-16T01:21:34.811Z,0.6
2022-10-16T01:22:42.459Z,0.4
2022-10-16T01:23:52.113Z,0.7
2022-10-16T01:25:00.764Z,0.5
2022-10-16T01:26:08.435Z,0.6
2022-10-16T01:27:18.146Z,0.7
2022-10-16T01:28:26.830Z,0.6
2022-10-16T01:29:36.425Z,0.4
2022-10-16T01:30:46.077Z,0.6
2022-10-16T01:31:53.736Z,0.6
2022-10-16T01:33:03.423Z,0.6
2022-10-16T01:34:13.082Z,0.5
2022-10-16T01:35:20.733Z,0.6
2022-10-16T01:36:30.406Z,0.7
2022-10-16T01:37:38.114Z,0.5
2022-10-16T01:38:46.812Z,0.8
2022-10-16T01:39:55.465Z,0.7
2022-10-16T01:41:03.113Z,0.7
2022-10-16T01:42:12.767Z,0.6
2022-10-16T01:43:21.444Z,0.6
2022-10-16T01:44:29.091Z,0.9
2022-10-16T01:45:38.752Z,0.8
2022-10-16T01:46:46.391Z,0.8
2022-10-16T01:47:55.130Z,0.7
2022-10-16T01:49:04.752Z,0.7
2022-10-16T01:50:12.427Z,0.7
2022-10-16T01:51:22.090Z,0.6
2022-10-16T01:52:30.738Z,0.5
2022-10-16T01:53:39.398Z,0.8
2022-10-16T01:54:49.092Z,0.8
2022-10-16T01:55:56.893Z,0.8
2022-10-16T01:57:05.669Z,0.8
2022-10-16T01:58:15.312Z,0.7
2022-10-16T01:59:24.992Z,0.8
2022-10-16T02:00:34.628Z,0.9
2022-10-16T02:01:44.329Z,0.8
2022-10-16T02:02:52.984Z,0.9
2022-10-16T02:04:02.648Z,0.8
2022-10-16T02:05:10.334Z,0.9
2022-10-16T02:06:19.993Z,0.7
2022-10-16T02:07:29.796Z,0.8
2022-10-16T02:08:38.462Z,0.8
2022-10-16T02:09:48.108Z,0.6
2022-10-16T02:10:56.770Z,0.7
2022-10-16T02:12:04.427Z,0.7
2022-10-16T02:13:14.121Z,0.7
2022-10-16T02:14:22.791Z,0.7
2022-10-16T02:15:31.471Z,0.6
2022-10-16T02:16:41.123Z,0.7
2022-10-16T02:17:48.779Z,0.6
2022-10-16T02:18:58.456Z,0.6
2022-10-16T02:20:07.097Z,0.6
2022-10-16T02:21:15.777Z,0.7
2022-10-16T02:22:25.725Z,0.5
2022-10-16T02:23:35.096Z,0.7
2022-10-16T02:24:43.827Z,0.5
2022-10-16T02:25:53.520Z,0.5
2022-10-16T02:27:02.195Z,0.5
2022-10-16T02:28:10.849Z,0.7
2022-10-16T02:29:20.636Z,0.6
2022-10-16T02:30:29.251Z,0.6
2022-10-16T02:31:37.927Z,0.7
2022-10-16T02:32:47.569Z,0.6
2022-10-16T02:33:55.241Z,0.7
2022-10-16T02:35:04.902Z,0.7
2022-10-16T02:36:13.635Z,0.8
2022-10-16T02:37:21.300Z,0.7
2022-10-16T02:38:30.981Z,0.8
2022-10-16T02:39:38.634Z,0.5
2022-10-16T02:40:47.357Z,0.6
2022-10-16T02:41:57.058Z,0.6
2022-10-16T02:43:05.710Z,0.8
2022-10-16T02:44:15.363Z,0.7
2022-10-16T02:45:24.031Z,0.7
2022-10-16T02:46:31.680Z,0.6
2022-10-16T02:47:41.478Z,0.8
2022-10-16T02:48:50.195Z,0.7
2022-10-16T02:49:58.874Z,0.7
2022-10-16T02:51:08.544Z,0.5
2022-10-16T02:52:17.220Z,0.7
2022-10-16T02:53:26.910Z,0.9
2022-10-16T02:54:36.595Z,0.6
2022-10-16T02:55:45.295Z,0.7
2022-10-16T02:56:54.972Z,0.6
2022-10-16T02:58:04.646Z,0.7
2022-10-16T02:59:13.349Z,0.8
2022-10-16T03:00:23.016Z,0.7
2022-10-16T03:01:30.721Z,0.8
2022-10-16T03:02:40.362Z,0.7
2022-10-16T03:03:49.052Z,0.7
2022-10-16T03:04:56.724Z,0.7
2022-10-16T03:06:06.380Z,0.8
2022-10-16T03:07:15.038Z,0.8
2022-10-16T03:08:23.697Z,0.7
2022-10-16T03:09:33.404Z,0.9
2022-10-16T03:10:41.330Z,0.9
2022-10-16T03:11:51.024Z,1
2022-10-16T03:12:59.666Z,0.9
2022-10-16T03:14:08.341Z,0.7
2022-10-16T03:15:18.019Z,0.9
2022-10-16T03:16:27.758Z,0.9
2022-10-16T03:17:37.410Z,1.1
2022-10-16T03:18:47.065Z,1.2
2022-10-16T03:19:56.761Z,0.9
2022-10-16T03:21:06.410Z,1
2022-10-16T03:22:16.107Z,1.1
2022-10-16T03:23:24.827Z,1.1
2022-10-16T03:24:34.438Z,1.1
2022-10-16T03:25:42.094Z,1
2022-10-16T03:26:50.766Z,1
2022-10-16T03:28:00.468Z,1.1
2022-10-16T03:29:08.166Z,1.1
2022-10-16T03:30:17.848Z,1
2022-10-16T03:31:27.514Z,1
2022-10-16T03:33:45.859Z,1.1
2022-10-16T03:34:54.514Z,1.4
2022-10-16T03:36:03.207Z,1
2022-10-16T03:37:12.853Z,0.9
2022-10-16T03:38:22.542Z,1.2
2022-10-16T03:39:32.311Z,0.9
2022-10-16T03:40:40.972Z,0.9
2022-10-16T03:41:49.677Z,0.9
2022-10-16T03:42:59.359Z,1.1
2022-10-16T03:44:05.991Z,1
2022-10-16T03:45:14.664Z,1
2022-10-16T03:46:24.354Z,1.1
2022-10-16T03:47:33.046Z,1.1
2022-10-16T03:48:42.719Z,1.1
2022-10-16T03:49:52.411Z,0.9
2022-10-16T03:51:00.087Z,1
2022-10-16T03:52:09.908Z,0.9
2022-10-16T03:53:19.406Z,1.2
2022-10-16T03:54:28.057Z,1.1
2022-10-16T03:55:37.731Z,1
2022-10-16T03:56:46.409Z,0.9
2022-10-16T03:57:56.080Z,1.1
2022-10-16T03:59:04.741Z,1.1
2022-10-16T04:00:12.421Z,1
2022-10-16T04:01:22.128Z,1.1
2022-10-16T04:02:30.816Z,1.1
2022-10-16T04:03:39.536Z,0.8
2022-10-16T04:04:49.247Z,0.9
2022-10-16T04:05:56.919Z,0.8
2022-10-16T04:07:06.570Z,1
2022-10-16T04:08:15.299Z,1.1
2022-10-16T04:09:22.953Z,0.9
2022-10-16T04:10:32.625Z,0.7
2022-10-16T04:11:42.299Z,0.8
2022-10-16T04:12:49.953Z,0.8
2022-10-16T04:13:59.639Z,0.9
2022-10-16T04:15:08.320Z,0.7
2022-10-16T04:16:17.981Z,0.7
2022-10-16T04:17:28.011Z,0.7
2022-10-16T04:18:37.381Z,1
2022-10-16T04:19:46.124Z,0.9
2022-10-16T04:20:55.834Z,0.8
2022-10-16T04:22:04.504Z,0.7
2022-10-16T04:23:14.171Z,0.6
2022-10-16T04:24:22.856Z,0.7
2022-10-16T04:25:32.592Z,0.7
2022-10-16T04:26:42.322Z,0.9
2022-10-16T04:27:51.006Z,0.7
2022-10-16T04:29:00.749Z,0.8
2022-10-16T04:30:10.343Z,0.7
2022-10-16T04:31:18.047Z,0.6
2022-10-16T04:32:27.740Z,0.6
2022-10-16T04:33:37.428Z,0.7
2022-10-16T04:34:47.097Z,0.6
2022-10-16T04:35:56.767Z,0.7
2022-10-16T04:37:05.463Z,0.5
2022-10-16T04:38:14.121Z,0.5
2022-10-16T04:39:23.775Z,0.6
2022-10-16T04:40:32.459Z,0.5
2022-10-16T04:41:42.099Z,0.7
2022-10-16T04:42:51.781Z,0.7
2022-10-16T04:44:00.462Z,0.6
2022-10-16T04:45:10.979Z,0.7
2022-10-16T04:46:18.769Z,0.6
2022-10-16T04:47:27.848Z,0.7
2022-10-16T04:48:37.147Z,0.7
2022-10-16T04:49:45.781Z,0.6
2022-10-16T04:50:55.446Z,0.6
2022-10-16T04:52:04.101Z,0.5
2022-10-16T04:53:11.822Z,0.6
2022-10-16T04:54:21.535Z,0.7
2022-10-16T04:55:30.298Z,0.6
2022-10-16T04:56:39.986Z,0.6
2022-10-16T04:57:49.655Z,0.6
2022-10-16T04:58:58.333Z,0.6
2022-10-16T05:00:08.025Z,0.5
2022-10-16T05:01:16.678Z,0.6
2022-10-16T05:02:25.437Z,0.7
2022-10-16T05:03:35.062Z,0.7
2022-10-16T05:04:42.729Z,0.6
2022-10-16T05:05:52.535Z,0.5
2022-10-16T05:07:02.223Z,0.5
2022-10-16T05:08:10.888Z,0.5
2022-10-16T05:09:20.589Z,0.6
2022-10-16T05:10:29.268Z,0.6
2022-10-16T05:11:37.969Z,0.5
2022-10-16T05:12:47.656Z,0.5
2022-10-16T05:13:57.339Z,0.5
2022-10-16T05:15:05.995Z,0.6
2022-10-16T05:16:15.661Z,0.6
2022-10-16T05:17:23.570Z,0.6
2022-10-16T05:18:33.060Z,0.7
2022-10-16T05:19:41.720Z,0.6
2022-10-16T05:20:51.412Z,0.8
2022-10-16T05:22:01.125Z,0.7
2022-10-16T05:23:08.935Z,0.7
2022-10-16T05:24:17.583Z,0.8
2022-10-16T05:25:27.269Z,0.7
2022-10-16T05:26:34.909Z,0.8
2022-10-16T05:27:44.592Z,0.8
2022-10-16T05:28:53.381Z,0.8
2022-10-16T05:30:01.009Z,0.8
2022-10-16T05:31:10.682Z,0.7
2022-10-16T05:32:19.418Z,0.7
2022-10-16T05:33:28.070Z,0.8
2022-10-16T05:34:37.765Z,0.9
2022-10-16T05:35:46.444Z,1
2022-10-16T05:36:56.112Z,0.9
2022-10-16T05:38:04.764Z,1.1
2022-10-16T05:39:13.427Z,0.9
2022-10-16T05:40:23.169Z,1
2022-10-16T05:41:31.779Z,1.2
2022-10-16T05:42:40.438Z,1.1
2022-10-16T05:43:50.138Z,1.2
2022-10-16T05:44:58.834Z,1.2
2022-10-16T05:46:08.541Z,1
2022-10-16T05:47:17.218Z,1.1
2022-10-16T05:48:25.868Z,1
2022-10-16T05:49:36.771Z,0.9
2022-10-16T05:50:45.216Z,1
2022-10-16T05:51:53.915Z,0.8
2022-10-16T05:53:03.593Z,0.7
2022-10-16T05:54:11.309Z,0.7
2022-10-16T05:55:22.824Z,0.8
2022-10-16T05:56:33.380Z,0.7
2022-10-16T05:57:42.103Z,0.6
2022-10-16T05:58:51.796Z,0.6
2022-10-16T06:00:01.503Z,0.7
2022-10-16T06:01:10.227Z,0.8
2022-10-16T06:02:19.888Z,0.7
2022-10-16T06:03:27.576Z,0.7
2022-10-16T06:04:37.240Z,0.8
2022-10-16T06:05:45.888Z,0.9
2022-10-16T06:06:55.571Z,0.9
2022-10-16T06:08:05.243Z,0.8
2022-10-16T06:09:14.016Z,0.8
2022-10-16T06:10:22.687Z,0.5
2022-10-16T06:11:32.600Z,0.5
2022-10-16T06:12:40.239Z,0.5
2022-10-16T06:13:49.901Z,0.4
2022-10-16T06:14:58.758Z,0.4
2022-10-16T06:16:07.460Z,0.6
2022-10-16T06:17:17.098Z,0.6
2022-10-16T06:18:26.806Z,0.6
2022-10-16T06:19:35.475Z,0.6
2022-10-16T06:20:45.228Z,0.6
2022-10-16T06:21:53.888Z,0.5
2022-10-16T06:23:03.571Z,0.5
2022-10-16T06:24:13.231Z,0.3
2022-10-16T06:25:21.914Z,0.6
2022-10-16T06:26:31.654Z,0.3
2022-10-16T06:27:41.315Z,0.4
2022-10-16T06:28:50.025Z,0.4
2022-10-16T06:29:59.648Z,0.5
2022-10-16T06:31:09.358Z,0.5
2022-10-16T06:32:18.067Z,0.5
2022-10-16T06:33:27.677Z,0.6
2022-10-16T06:34:36.933Z,0.7
2022-10-16T06:35:46.007Z,0.9
2022-10-16T06:36:55.673Z,1
2022-10-16T06:38:05.440Z,1
2022-10-16T06:39:15.117Z,0.8
2022-10-16T06:40:23.771Z,0.6
2022-10-16T06:41:32.440Z,0.4
2022-10-16T06:42:42.112Z,0.5
2022-10-16T06:43:49.798Z,0.4
2022-10-16T06:44:59.486Z,0.4
2022-10-16T06:46:09.215Z,0.4
2022-10-16T06:47:17.874Z,0.4
2022-10-16T06:48:26.568Z,0.3
2022-10-16T06:49:35.259Z,0.4
2022-10-16T06:50:43.907Z,0.3
2022-10-16T06:51:53.640Z,0.3
2022-10-16T06:53:02.336Z,0.5
2022-10-16T06:54:12.000Z,0.4
2022-10-16T06:55:21.744Z,0.4
2022-10-16T06:56:29.409Z,0.6
2022-10-16T06:57:39.103Z,0.5
2022-10-16T06:58:47.766Z,0.5
2022-10-16T06:59:57.404Z,0.5
2022-10-16T07:01:07.113Z,0.6
2022-10-16T07:02:14.809Z,0.6
2022-10-16T07:03:24.477Z,0.6
2022-10-16T07:04:34.214Z,0.6
2022-10-16T07:05:41.859Z,0.5
2022-10-16T07:06:51.598Z,0.6
2022-10-16T07:08:01.283Z,0.6
2022-10-16T07:09:08.972Z,0.4
2022-10-16T07:10:18.660Z,0.4
2022-10-16T07:11:27.344Z,0.3
2022-10-16T07:12:36.164Z,0.3
2022-10-16T07:13:49.140Z,0.5
2022-10-16T07:14:54.513Z,1.1
2022-10-16T07:16:04.207Z,1.2
2022-10-16T07:17:12.875Z,0.8
2022-10-16T07:18:21.614Z,0.9
2022-10-16T07:19:34.369Z,0.8
2022-10-16T07:20:40.930Z,0.7
2022-10-16T07:21:49.570Z,0.7
2022-10-16T07:22:59.240Z,0.6
2022-10-16T07:24:07.035Z,0.6
2022-10-16T07:25:16.726Z,0.3
2022-10-16T07:26:25.389Z,0.5
2022-10-16T07:27:32.117Z,0.4
2022-10-16T07:28:41.873Z,0.5
2022-10-16T07:29:50.423Z,0.4
2022-10-16T07:30:59.087Z,0.4
2022-10-16T07:32:08.742Z,0.3
2022-10-16T07:33:16.403Z,0.4
2022-10-16T07:34:26.127Z,0.2
2022-10-16T07:35:34.854Z,0.4
2022-10-16T07:36:44.567Z,0.4
2022-10-16T07:37:54.217Z,0.2
2022-10-16T07:39:03.886Z,0.3
2022-10-16T07:40:13.551Z,0.4
2022-10-16T07:41:23.468Z,0.2
2022-10-16T07:42:32.135Z,0.4
2022-10-16T07:43:41.856Z,0.5
2022-10-16T07:44:51.606Z,0.4
2022-10-16T07:46:02.545Z,0.3
2022-10-16T07:47:11.961Z,0.3
2022-10-16T07:48:21.728Z,0.2
2022-10-16T07:49:31.439Z,0.3
2022-10-16T07:50:40.107Z,0.3
2022-10-16T07:51:49.936Z,0.1
2022-10-16T07:52:59.567Z,0.4
2022-10-16T07:54:09.333Z,0.4
2022-10-16T07:55:16.999Z,0.3
2022-10-16T07:56:26.662Z,0.2
2022-10-16T07:57:34.343Z,0.1
2022-10-16T07:58:43.025Z,0.1
2022-10-16T07:59:52.696Z,0.1
2022-10-16T08:01:01.440Z,0.2
2022-10-16T08:02:12.170Z,0.2
2022-10-16T08:03:21.821Z,0.2
2022-10-16T08:04:30.514Z,0
2022-10-16T08:05:40.193Z,0.3
2022-10-16T08:06:48.899Z,0.1
2022-10-16T08:07:57.704Z,0.2
2022-10-16T08:09:07.345Z,0.3
2022-10-16T08:10:17.083Z,0.1
2022-10-16T08:11:26.755Z,0.2
2022-10-16T08:12:35.445Z,0.1
2022-10-16T08:13:44.107Z,0.2
2022-10-16T08:14:53.838Z,0.2
2022-10-16T08:16:02.584Z,0.3
2022-10-16T08:17:10.286Z,0.2
2022-10-16T08:18:20.005Z,0.1
2022-10-16T08:19:28.716Z,0.2
2022-10-16T08:20:37.496Z,0.2
2022-10-16T08:21:47.206Z,0.2
2022-10-16T08:22:55.953Z,0.2
2022-10-16T08:24:04.646Z,0.3
2022-10-16T08:25:14.325Z,0.3
2022-10-16T08:26:22.017Z,0.3
2022-10-16T08:27:31.895Z,0.2
2022-10-16T08:28:41.678Z,0.2
2022-10-16T08:29:50.335Z,0.2
2022-10-16T08:31:00.030Z,0.1
2022-10-16T08:32:09.705Z,0.3
2022-10-16T08:33:19.467Z,0.1
2022-10-16T08:34:29.345Z,0.1
2022-10-16T08:35:38.033Z,0.2
2022-10-16T08:36:47.728Z,0.2
2022-10-16T08:37:56.421Z,0.2
2022-10-16T08:39:04.140Z,0.1
2022-10-16T08:40:13.936Z,0.1
2022-10-16T08:41:21.611Z,0.1
2022-10-16T08:42:30.337Z,0.1
2022-10-16T08:43:40.019Z,0.2
2022-10-16T08:44:48.746Z,0.2
2022-10-16T08:45:58.487Z,0.3
2022-10-16T08:47:07.183Z,0.2
2022-10-16T08:48:15.850Z,0.1
2022-10-16T08:49:25.556Z,0.2
2022-10-16T08:50:33.262Z,0.1
2022-10-16T08:51:44.217Z,0.4
2022-10-16T08:52:53.622Z,0.1
2022-10-16T08:54:03.330Z,0.2
2022-10-16T08:55:13.016Z,0.1
2022-10-16T08:56:22.756Z,0.3
2022-10-16T08:57:31.428Z,0.1
2022-10-16T08:58:41.160Z,0.2
2022-10-16T08:59:49.813Z,0.1
2022-10-16T09:00:58.596Z,0
2022-10-16T09:02:08.211Z,0
2022-10-16T09:03:17.894Z,0.3
2022-10-16T09:04:27.629Z,0
2022-10-16T09:05:36.265Z,0.1
2022-10-16T09:06:44.941Z,0.1
2022-10-16T09:07:54.761Z,0.1
2022-10-16T09:09:02.476Z,0.1
2022-10-16T09:10:11.223Z,0.2
2022-10-16T09:11:20.905Z,0.2
2022-10-16T09:12:29.800Z,0
2022-10-16T09:13:39.351Z,0.1
2022-10-16T09:14:48.009Z,0.1
2022-10-16T09:15:56.703Z,0.1
2022-10-16T09:17:06.537Z,0.1
2022-10-16T09:18:14.126Z,0.1
2022-10-16T09:19:23.040Z,0.2
2022-10-16T09:20:32.702Z,0.2
2022-10-16T09:21:41.467Z,0.1
2022-10-16T09:22:51.182Z,0.1
2022-10-16T09:23:59.861Z,0.1
2022-10-16T09:25:08.612Z,0.1
2022-10-16T09:26:17.420Z,0.1
2022-10-16T09:27:26.394Z,0.2
2022-10-16T09:28:34.796Z,0.1
2022-10-16T09:29:44.462Z,0.1
2022-10-16T09:30:52.308Z,0
2022-10-16T09:32:01.989Z,0.1
2022-10-16T09:33:10.655Z,0.1
2022-10-16T09:34:18.310Z,0.2
2022-10-16T09:35:28.060Z,0
2022-10-16T09:36:35.722Z,0.1
2022-10-16T09:37:45.430Z,0.1
2022-10-16T09:38:55.099Z,0.2
2022-10-16T09:40:06.690Z,0
2022-10-16T09:41:15.646Z,0.1
2022-10-16T09:42:24.465Z,0.2
2022-10-16T09:43:32.167Z,0.1
2022-10-16T09:45:51.648Z,0.2
2022-10-16T09:47:00.301Z,0.2
2022-10-16T09:48:08.982Z,0.2
2022-10-16T09:49:17.651Z,0.1
2022-10-16T09:50:26.319Z,0.1
2022-10-16T09:51:35.974Z,0.1
2022-10-16T09:52:43.650Z,0
2022-10-16T09:55:02.083Z,0.1
2022-10-16T09:56:13.271Z,0
2022-10-16T09:57:22.388Z,0.1
2022-10-16T09:58:31.036Z,0.2
2022-10-16T09:59:40.888Z,0
2022-10-16T10:00:50.577Z,0.1
2022-10-16T10:01:59.238Z,0.1
2022-10-16T10:03:08.901Z,0.1
2022-10-16T10:04:16.567Z,0.1
2022-10-16T10:05:26.279Z,0
2022-10-16T10:06:35.942Z,0.1
2022-10-16T10:07:43.611Z,0.1
2022-10-16T10:08:53.322Z,0.1
2022-10-16T10:10:03.984Z,0.1
2022-10-16T10:11:15.296Z,0.1
2022-10-16T10:12:26.066Z,0.1
2022-10-16T10:13:33.190Z,0.2
2022-10-16T10:14:41.801Z,0.1
2022-10-16T10:15:51.477Z,0
2022-10-16T10:17:01.191Z,0.1
2022-10-16T10:18:09.836Z,0.1
2022-10-16T10:19:19.520Z,0
2022-10-16T10:20:28.189Z,0.1
2022-10-16T10:21:37.882Z,0.1
2022-10-16T10:22:47.661Z,0.1
2022-10-16T10:23:55.344Z,0.1
2022-10-16T10:25:05.022Z,0.1
2022-10-16T10:26:13.696Z,0.2
2022-10-16T10:27:21.407Z,0.1
2022-10-16T10:28:31.178Z,0.1
2022-10-16T10:29:38.804Z,0.3
2022-10-16T10:30:47.502Z,0.1
2022-10-16T10:31:57.205Z,0.2
2022-10-16T10:33:05.887Z,0
2022-10-16T10:34:15.690Z,0
2022-10-16T10:35:24.394Z,0.1
2022-10-16T10:36:32.073Z,0.1
2022-10-16T10:37:41.741Z,0.3
2022-10-16T10:38:49.445Z,0.1
2022-10-16T10:39:58.296Z,0
2022-10-16T10:41:08.061Z,0.1
2022-10-16T10:42:17.749Z,0.1
2022-10-16T10:43:27.443Z,0.1
2022-10-16T10:44:37.126Z,0
2022-10-16T10:45:46.942Z,0.2
2022-10-16T10:46:56.647Z,0.1
2022-10-16T10:48:05.316Z,0.1
2022-10-16T10:49:15.064Z,0.2
2022-10-16T10:50:24.713Z,0.2
2022-10-16T10:51:32.417Z,0.1
2022-10-16T10:52:42.144Z,0.1
2022-10-16T10:53:51.878Z,0.1
2022-10-16T10:55:01.551Z,0.1
2022-10-16T10:56:11.262Z,0.1
2022-10-16T10:57:19.010Z,0.2
2022-10-16T10:58:29.030Z,0.2
2022-10-16T10:59:37.307Z,0
2022-10-16T11:00:46.017Z,0.1
2022-10-16T11:01:54.675Z,0.1
2022-10-16T11:03:03.426Z,0.1
2022-10-16T11:04:11.094Z,0.1
2022-10-16T11:05:20.809Z,0.2
2022-10-16T11:06:29.479Z,0.1
2022-10-16T11:07:38.109Z,0.1
2022-10-16T11:08:47.906Z,0.1
2022-10-16T11:09:56.632Z,0.1
2022-10-16T11:11:06.307Z,0.1
2022-10-16T11:12:15.957Z,0.1
2022-10-16T11:13:23.641Z,0.1
2022-10-16T11:14:33.392Z,0
2022-10-16T11:15:43.097Z,0
2022-10-16T11:16:52.903Z,0
2022-10-16T11:18:02.617Z,0
2022-10-16T11:19:10.349Z,0.1
2022-10-16T11:20:20.063Z,0
2022-10-16T11:21:30.424Z,0
2022-10-16T11:22:39.347Z,0
2022-10-16T11:23:49.113Z,0.1
2022-10-16T11:26:07.534Z,0
2022-10-16T11:27:17.274Z,0.1
2022-10-16T11:28:29.303Z,0.1
2022-10-16T11:29:37.562Z,0
2022-10-16T11:30:47.284Z,0.2
2022-10-16T11:31:55.973Z,0.1
2022-10-16T11:33:05.702Z,0.2
2022-10-16T11:34:14.370Z,0
2022-10-16T11:35:24.061Z,0.1
2022-10-16T11:36:33.826Z,0
2022-10-16T11:37:42.664Z,0.1
2022-10-16T11:38:52.334Z,0
2022-10-16T11:40:01.014Z,0
2022-10-16T11:41:08.665Z,0
2022-10-16T11:42:18.401Z,0
2022-10-16T11:43:27.094Z,0.2
2022-10-16T11:44:35.766Z,0
2022-10-16T11:45:45.461Z,0.1
2022-10-16T11:47:00.909Z,0.1
2022-10-16T11:48:06.131Z,0.1
2022-10-16T11:49:14.466Z,0.1
2022-10-16T11:50:22.118Z,0.1
2022-10-16T11:51:31.782Z,0.1
2022-10-16T11:52:40.460Z,0.1
2022-10-16T11:53:50.124Z,0.1
2022-10-16T11:54:59.959Z,0.1
2022-10-16T11:56:08.633Z,0
2022-10-16T11:57:18.309Z,0
2022-10-16T11:58:27.980Z,0.1
2022-10-16T11:59:36.715Z,0.2
2022-10-16T12:00:46.436Z,0
2022-10-16T12:01:54.101Z,0.1
2022-10-16T12:03:03.816Z,0.1
2022-10-16T12:04:13.567Z,0
2022-10-16T12:05:22.293Z,0.1
2022-10-16T12:06:31.987Z,0.1
2022-10-16T12:07:40.685Z,0
2022-10-16T12:08:49.399Z,0.1
2022-10-16T12:09:59.066Z,0.1
2022-10-16T12:11:07.757Z,0
2022-10-16T12:12:16.543Z,0
2022-10-16T12:13:26.251Z,0
2022-10-16T12:14:37.179Z,0.1
2022-10-16T12:15:58.536Z,0.1
2022-10-16T12:16:57.336Z,0.1
2022-10-16T12:18:05.091Z,0
2022-10-16T12:19:13.774Z,0
2022-10-16T12:20:23.571Z,0.1
2022-10-16T12:21:32.322Z,0
2022-10-16T12:22:42.011Z,0
2022-10-16T12:23:50.728Z,0.2
2022-10-16T12:25:00.413Z,0.1
2022-10-16T12:26:10.105Z,0.1
2022-10-16T12:27:17.842Z,0.1
2022-10-16T12:28:27.591Z,0
2022-10-16T12:29:37.250Z,0.2
2022-10-16T12:30:45.923Z,0
2022-10-16T12:31:58.192Z,0
2022-10-16T12:33:04.302Z,0.1
2022-10-16T12:34:12.967Z,0
2022-10-16T12:35:22.693Z,0
2022-10-16T12:36:31.365Z,0
2022-10-16T12:37:39.037Z,0.1
2022-10-16T12:38:48.707Z,0.2
2022-10-16T12:39:59.456Z,0
2022-10-16T12:41:09.220Z,0
2022-10-16T12:42:18.948Z,0.1
2022-10-16T12:43:29.073Z,0
2022-10-16T12:44:39.399Z,0
2022-10-16T12:45:49.606Z,0
2022-10-16T12:46:58.393Z,0.1
2022-10-16T12:48:08.124Z,0.1
2022-10-16T12:49:16.906Z,0.1
2022-10-16T12:50:26.595Z,0
2022-10-16T12:51:36.351Z,0.1
2022-10-16T12:52:45.045Z,0.1
2022-10-16T12:53:54.819Z,0
2022-10-16T12:55:03.538Z,0
2022-10-16T12:56:12.240Z,0.1
2022-10-16T12:57:21.927Z,0
2022-10-16T12:58:29.733Z,0.1
2022-10-16T12:59:39.439Z,0.2
2022-10-16T13:00:49.112Z,0.1
2022-10-16T13:01:58.776Z,0.1
2022-10-16T13:03:10.297Z,0
2022-10-16T13:04:17.196Z,0
2022-10-16T13:05:26.947Z,0
2022-10-16T13:06:36.632Z,0.1
2022-10-16T13:07:45.355Z,0
2022-10-16T13:08:55.040Z,0
2022-10-16T13:10:03.820Z,0
2022-10-16T13:11:13.553Z,0.1
2022-10-16T13:12:23.213Z,0.1
2022-10-16T13:13:32.995Z,0.1
2022-10-16T13:14:41.746Z,0.2
2022-10-16T13:15:51.766Z,0.1
2022-10-16T13:16:59.443Z,0.2
2022-10-16T13:18:09.216Z,0
2022-10-16T13:19:18.987Z,0.2
2022-10-16T13:20:28.647Z,0.1
2022-10-16T13:21:38.367Z,0.2
2022-10-16T13:22:47.033Z,0.1
2022-10-16T13:23:56.759Z,0
2022-10-16T13:25:07.037Z,0.2
2022-10-16T13:26:17.207Z,0
2022-10-16T13:27:27.305Z,0
2022-10-16T13:28:35.727Z,0.1
2022-10-16T13:29:45.371Z,0
2022-10-16T13:30:55.077Z,0.2
2022-10-16T13:32:02.758Z,0.1
2022-10-16T13:33:11.473Z,0.3
2022-10-16T13:34:21.193Z,0.3
2022-10-16T13:35:30.898Z,0.3
2022-10-16T13:36:40.707Z,0.2
2022-10-16T13:37:49.430Z,0.1
2022-10-16T13:38:58.138Z,0
2022-10-16T13:40:07.861Z,0.1
2022-10-16T13:41:16.655Z,0.2
2022-10-16T13:42:27.739Z,0.2
2022-10-16T13:43:37.008Z,0.2
2022-10-16T13:44:44.908Z,0
2022-10-16T13:45:54.625Z,0.1
2022-10-16T13:47:04.312Z,0
2022-10-16T13:48:13.059Z,0
2022-10-16T13:49:22.811Z,0.1
2022-10-16T13:50:30.528Z,0
2022-10-16T13:51:39.351Z,0.1
2022-10-16T13:52:49.018Z,0.3
2022-10-16T13:53:56.759Z,0
2022-10-16T13:55:06.436Z,0
2022-10-16T13:56:18.557Z,0
2022-10-16T13:57:28.685Z,0
2022-10-16T13:58:39.751Z,0
2022-10-16T13:59:48.750Z,0
2022-10-16T14:01:00.311Z,0.2
2022-10-16T14:02:10.840Z,0.1
2022-10-16T14:03:19.514Z,0.1
2022-10-16T14:04:29.255Z,0
2022-10-16T14:05:37.927Z,0
2022-10-16T14:06:46.612Z,0
2022-10-16T14:07:56.347Z,0
2022-10-16T14:09:04.036Z,0
2022-10-16T14:10:13.741Z,0
2022-10-16T14:11:23.421Z,0
2022-10-16T14:12:33.486Z,0
2022-10-16T14:13:40.860Z,0.1
2022-10-16T14:14:49.563Z,0
2022-10-16T14:15:58.231Z,0.1
2022-10-16T14:17:07.927Z,0
2022-10-16T14:18:17.696Z,0.1
2022-10-16T14:19:26.405Z,0.1
2022-10-16T14:20:36.202Z,0
2022-10-16T14:21:43.878Z,0.1
2022-10-16T14:22:52.566Z,0
2022-10-16T14:24:02.255Z,0
2022-10-16T14:25:10.082Z,0
2022-10-16T14:26:18.745Z,0
2022-10-16T14:27:28.483Z,0.1
2022-10-16T14:28:36.303Z,0
2022-10-16T14:29:45.956Z,0.1
2022-10-16T14:30:54.781Z,0
2022-10-16T14:32:03.556Z,0
2022-10-16T14:33:13.319Z,0
2022-10-16T14:34:22.002Z,0
2022-10-16T14:35:31.675Z,0.1
2022-10-16T14:36:41.459Z,0.1
2022-10-16T14:37:51.171Z,0
2022-10-16T14:39:01.859Z,0.1
2022-10-16T14:40:10.585Z,0
2022-10-16T14:41:18.319Z,0.1
2022-10-16T14:42:28.249Z,0.1
2022-10-16T14:43:36.959Z,0.2
2022-10-16T14:44:46.651Z,0
2022-10-16T14:45:56.345Z,0
2022-10-16T14:47:05.057Z,0
2022-10-16T14:48:17.299Z,0
2022-10-16T14:49:23.466Z,0.1
2022-10-16T14:50:32.192Z,0
2022-10-16T14:51:41.870Z,0.1
2022-10-16T14:52:49.616Z,0
2022-10-16T14:54:00.422Z,0.1
2022-10-16T14:55:10.072Z,0.1
2022-10-16T14:56:17.770Z,0
2022-10-16T14:57:27.910Z,0
2022-10-16T14:58:36.175Z,0.3
2022-10-16T14:59:45.900Z,1
2022-10-16T15:00:55.614Z,3
2022-10-16T15:02:05.354Z,2.9
2022-10-16T15:03:14.092Z,2.2
2022-10-16T15:04:23.801Z,1.9
2022-10-16T15:05:31.542Z,1.2
2022-10-16T15:06:41.251Z,1
2022-10-16T15:07:49.928Z,0.6
2022-10-16T15:08:57.702Z,0.5
2022-10-16T15:10:07.413Z,0.8
2022-10-16T15:11:15.210Z,0.6
2022-10-16T15:12:23.965Z,0.8
2022-10-16T15:13:33.706Z,1.3
2022-10-16T15:14:43.491Z,0.8
2022-10-16T15:15:52.209Z,0.9
2022-10-16T15:17:01.324Z,0.4
2022-10-16T15:18:09.998Z,0.7
2022-10-16T15:19:19.797Z,0.4
2022-10-16T15:20:28.495Z,0.2
2022-10-16T15:21:37.244Z,0.2
2022-10-16T15:22:47.995Z,0.2
2022-10-16T15:23:55.691Z,0.2
2022-10-16T15:25:05.418Z,0.2
2022-10-16T15:26:14.117Z,0.1
2022-10-16T15:27:21.812Z,0.2
2022-10-16T15:28:31.637Z,0.2
2022-10-16T15:29:39.361Z,0.1
2022-10-16T15:30:48.102Z,0.2
2022-10-16T15:31:57.784Z,0.1
2022-10-16T15:33:05.582Z,0.2
2022-10-16T15:34:15.343Z,0.2
2022-10-16T15:35:25.272Z,0.1
2022-10-16T15:36:32.989Z,0.1
2022-10-16T15:37:42.684Z,0.2
2022-10-16T15:38:51.444Z,0.2
2022-10-16T15:40:00.190Z,0.1
2022-10-16T15:41:09.889Z,0.2
2022-10-16T15:42:18.640Z,0.1
2022-10-16T15:43:28.431Z,0.1
2022-10-16T15:44:38.211Z,0.2
2022-10-16T15:45:46.903Z,0.1
2022-10-16T15:46:56.637Z,0.2
2022-10-16T15:48:05.347Z,0.1
2022-10-16T15:49:14.089Z,0.1
2022-10-16T15:50:23.763Z,0.1
2022-10-16T15:51:32.554Z,0.3
2022-10-16T15:52:42.214Z,0.3
2022-10-16T15:53:51.975Z,0.1
2022-10-16T15:54:59.731Z,0.2
2022-10-16T15:56:09.462Z,0.1
2022-10-16T15:57:18.182Z,0
2022-10-16T15:58:26.857Z,0.1
2022-10-16T15:59:36.608Z,0.2
2022-10-16T16:00:46.317Z,0.1
2022-10-16T16:01:56.055Z,0.1
2022-10-16T16:03:04.768Z,0.1
2022-10-16T16:04:25.632Z,0.1
2022-10-16T16:05:25.135Z,0.2
2022-10-16T16:06:33.844Z,0.2
2022-10-16T16:07:43.549Z,0.1